Time;durP1;ratioP1;P1;durP2;ratioP2;P2;SDS_P1;SDS_P2;PMS_P1;PMS_P2;Temp;Humidity;BMP_temperature;BMP_pressure;BME280_temperature;BME280_humidity;BME280_pressure;Samples;Min_cycle;Max_cycle;Signal;HPM_P1;HPM_P2
2022/03/17 00:00:03;;;;;;;14.68;6.22;;;;;;;-4.44;41.94;102173.47;5071520;28;20079;-67
2022/03/17 00:02:29;;;;;;;11.98;5.78;;;;;;;-4.56;41.92;102156.69;5071453;28;20086;-63
2022/03/17 00:04:54;;;;;;;19.73;7.20;;;;;;;-4.49;42.04;102166.41;5071642;28;20403;-66
2022/03/17 00:07:20;;;;;;;16.73;6.97;;;;;;;-4.41;41.84;102173.53;5070991;28;20135;-68
2022/03/17 00:09:46;;;;;;;10.50;6.00;;;;;;;-4.45;42.00;102176.94;5071901;28;20040;-69
2022/03/17 00:12:13;;;;;;;11.38;5.80;;;;;;;-4.29;41.59;102175.50;5070853;28;20043;-69
2022/03/17 00:14:38;;;;;;;12.88;6.85;;;;;;;-4.41;41.81;102173.53;5070839;28;20079;-70
2022/03/17 00:17:04;;;;;;;14.45;6.45;;;;;;;-4.67;41.77;102121.59;5071524;28;20381;-67
2022/03/17 00:19:30;;;;;;;15.10;6.63;;;;;;;-4.43;41.89;102165.66;5071587;28;20056;-59
2022/03/17 00:21:56;;;;;;;14.05;6.88;;;;;;;-4.44;42.25;102168.22;5071188;28;20363;-69
2022/03/17 00:24:21;;;;;;;12.57;6.57;;;;;;;-4.51;42.44;102165.50;5070814;28;20177;-71
2022/03/17 00:26:47;;;;;;;12.35;6.47;;;;;;;-4.53;42.46;102175.06;5070631;28;20028;-70
2022/03/17 00:29:12;;;;;;;11.30;6.35;;;;;;;-4.41;41.81;102168.28;5071116;28;20507;-69
2022/03/17 00:31:39;;;;;;;14.68;7.18;;;;;;;-4.51;42.30;102162.00;5070902;28;20386;-69
2022/03/17 00:34:08;;;;;;;14.13;7.20;;;;;;;-4.57;42.66;102174.97;5070715;28;20040;-69
2022/03/17 00:36:35;;;;;;;16.40;6.80;;;;;;;-4.58;42.58;102165.34;5071445;28;20119;-67
2022/03/17 00:39:05;;;;;;;15.60;6.97;;;;;;;-4.59;42.87;102167.06;5053591;28;20025;-60
2022/03/17 00:41:31;;;;;;;16.35;7.18;;;;;;;-4.64;43.08;102174.84;5070869;28;20689;-60
2022/03/17 00:43:57;;;;;;;14.88;6.75;;;;;;;-4.65;43.13;102182.63;5070779;28;20047;-68
2022/03/17 00:46:22;;;;;;;15.27;6.72;;;;;;;-4.63;42.79;102178.31;5071414;28;20542;-71
2022/03/17 00:48:48;;;;;;;14.45;6.93;;;;;;;-4.72;42.82;102167.69;5071364;28;20028;-69
2022/03/17 00:51:14;;;;;;;19.02;7.18;;;;;;;-4.68;43.21;102180.88;5070606;28;20028;-70
2022/03/17 00:53:39;;;;;;;12.00;6.15;;;;;;;-4.73;43.24;102177.25;5070463;28;20080;-70
2022/03/17 00:56:05;;;;;;;12.45;6.03;;;;;;;-4.73;43.11;102181.59;5071381;28;20033;-69
2022/03/17 00:58:30;;;;;;;14.85;6.60;;;;;;;-4.69;42.61;102179.09;5071479;28;20070;-70
2022/03/17 01:00:56;;;;;;;12.93;6.85;;;;;;;-4.61;42.63;102187.97;5070274;28;20032;-72
2022/03/17 01:03:22;;;;;;;13.88;6.75;;;;;;;-4.71;43.03;102192.97;5070641;28;20939;-70
2022/03/17 01:05:48;;;;;;;13.95;7.07;;;;;;;-4.81;43.30;102186.66;5071056;28;20489;-69
2022/03/17 01:08:13;;;;;;;14.50;6.78;;;;;;;-4.57;42.62;102190.66;5071123;28;20112;-67
2022/03/17 01:10:42;;;;;;;11.88;6.57;;;;;;;-4.67;42.99;102192.19;5070327;28;20032;-70
2022/03/17 01:13:08;;;;;;;11.38;5.53;;;;;;;-4.70;42.39;102179.94;5070295;28;20543;-71
2022/03/17 01:15:34;;;;;;;12.98;6.18;;;;;;;-4.67;43.00;102210.47;5070746;28;20046;-69
2022/03/17 01:17:59;;;;;;;12.50;6.95;;;;;;;-4.71;43.09;102199.06;5070605;28;20458;-70
2022/03/17 01:20:25;;;;;;;14.07;7.07;;;;;;;-4.67;42.88;102192.19;5069987;28;20060;-70
2022/03/17 01:22:50;;;;;;;12.10;7.20;;;;;;;-4.70;42.67;102202.56;5070548;28;20040;-70
2022/03/17 01:25:16;;;;;;;13.70;7.43;;;;;;;-4.74;43.40;102211.22;5069755;28;20033;-69
2022/03/17 01:27:41;;;;;;;13.32;6.93;;;;;;;-4.98;43.33;102168.03;5070032;28;20032;-70
2022/03/17 01:30:10;;;;;;;13.20;6.75;;;;;;;-4.81;43.36;102208.47;5052751;28;20032;-68
2022/03/17 01:32:38;;;;;;;14.63;6.75;;;;;;;-4.81;43.49;102203.25;5052019;28;20080;-70
2022/03/17 01:35:06;;;;;;;15.77;6.70;;;;;;;-4.85;43.23;102201.38;5071003;28;20449;-55
2022/03/17 01:37:32;;;;;;;12.63;6.95;;;;;;;-4.80;43.03;102207.63;5070121;28;20474;-69
2022/03/17 01:39:57;;;;;;;10.77;6.72;;;;;;;-4.69;42.56;102214.78;5073998;28;20090;-70
2022/03/17 01:42:23;;;;;;;13.88;7.20;;;;;;;-4.62;42.18;102207.13;5073763;28;20031;-70
2022/03/17 01:44:50;;;;;;;13.35;6.13;;;;;;;-4.72;42.86;102220.81;5073928;28;20037;-70
2022/03/17 01:47:28;;;;;;;11.13;5.85;;;;;;;-4.61;42.34;102216.72;5073639;28;20033;-68
2022/03/17 01:50:14;;;;;;;14.75;6.95;;;;;;;-4.69;42.93;102215.69;5074007;28;20020;-70
2022/03/17 01:52:40;;;;;;;;;;;;;;;-4.60;41.83;102220.22;5074159;28;20111;-67
2022/03/17 01:55:07;;;;;;;12.35;6.72;;;;;;;-4.78;42.86;102225.94;5073476;28;20016;-66
2022/03/17 01:57:33;;;;;;;12.38;6.65;;;;;;;-4.69;42.44;102210.47;5074421;28;20389;-68
2022/03/17 02:00:00;;;;;;;11.57;6.55;;;;;;;-4.82;42.69;102230.22;5073316;28;20028;-69
2022/03/17 02:02:26;;;;;;;12.18;6.22;;;;;;;-4.87;43.02;102216.16;5073114;28;20036;-70
2022/03/17 02:04:52;;;;;;;10.35;5.47;;;;;;;-4.87;42.48;102210.06;5074145;28;20037;-69
2022/03/17 02:07:19;;;;;;;12.15;5.78;;;;;;;-5.02;43.06;102206.25;5073765;28;20028;-69
2022/03/17 02:09:48;;;;;;;13.43;6.40;;;;;;;-4.99;43.67;102226.34;5073294;28;20020;-68
2022/03/17 02:15:00;;;;;;;12.63;6.03;;;;;;;-5.06;43.46;102228.84;5073993;28;20107;-69
2022/03/17 02:17:32;;;;;;;12.30;5.70;;;;;;;-5.01;42.96;102223.69;5072840;28;20037;-69
2022/03/17 02:19:59;;;;;;;11.00;5.80;;;;;;;-5.07;42.94;102221.81;5073264;28;20029;-71
2022/03/17 02:22:26;;;;;;;14.05;5.78;;;;;;;-4.98;42.75;102230.72;5073865;28;20024;-71
2022/03/17 02:27:38;;;;;;;15.02;6.47;;;;;;;-4.85;42.13;102234.50;5073017;28;20036;-56
2022/03/17 02:30:09;;;;;;;11.88;5.88;;;;;;;-4.72;41.39;102227.81;5073453;28;20041;-71
2022/03/17 02:32:34;;;;;;;16.08;7.05;;;;;;;-5.11;42.08;102195.59;5073688;28;20490;-69
2022/03/17 02:35:15;;;;;;;12.85;6.40;;;;;;;-5.03;42.30;102234.97;5073225;28;20043;-70
2022/03/17 02:37:40;;;;;;;17.35;6.50;;;;;;;-4.93;41.79;102237.84;5073123;28;20081;-70
2022/03/17 02:40:09;;;;;;;12.43;5.47;;;;;;;-4.88;41.67;102244.88;5073409;28;20036;-69
2022/03/17 02:42:37;;;;;;;11.88;5.22;;;;;;;-4.59;40.76;102237.66;5073777;28;20383;-68
2022/03/17 02:45:05;;;;;;;11.00;6.20;;;;;;;-4.83;41.35;102246.72;5073438;28;20087;-69
2022/03/17 02:47:31;;;;;;;13.60;6.40;;;;;;;-4.99;41.77;102255.97;5072489;28;20048;-68
2022/03/17 02:49:57;;;;;;;11.13;5.80;;;;;;;-5.11;41.77;102243.50;5071685;28;20035;-69
2022/03/17 02:52:27;;;;;;;11.52;6.07;;;;;;;-5.86;42.30;102138.16;5073348;28;20032;-68
2022/03/17 02:54:53;;;;;;;17.30;6.53;;;;;;;-5.25;42.44;102271.03;5072783;28;20335;-68
2022/03/17 02:57:19;;;;;;;10.27;5.93;;;;;;;-5.22;42.49;102277.19;5072537;28;20025;-68
2022/03/17 02:59:46;;;;;;;11.95;5.30;;;;;;;-5.40;42.27;102251.53;5072539;28;20094;-68
2022/03/17 03:02:14;;;;;;;13.75;6.22;;;;;;;-5.16;42.08;102268.63;5073066;28;20485;-70
2022/03/17 03:04:41;;;;;;;13.98;6.80;;;;;;;-5.25;42.75;102276.25;5072657;28;20382;-67
2022/03/17 03:07:06;;;;;;;12.48;6.57;;;;;;;-5.34;42.81;102276.91;5072799;28;20355;-68
2022/03/17 03:09:33;;;;;;;15.98;6.95;;;;;;;-5.37;43.07;102282.91;5071971;28;20035;-68
2022/03/17 03:11:59;;;;;;;13.82;6.85;;;;;;;-5.41;43.16;102288.06;5072766;28;20281;-67
2022/03/17 03:14:25;;;;;;;13.15;6.95;;;;;;;-5.43;43.06;102288.00;5054186;28;20528;-67
2022/03/17 03:16:51;;;;;;;13.88;6.88;;;;;;;-5.45;43.07;102296.63;5072271;28;20056;-66
2022/03/17 03:19:17;;;;;;;13.70;6.60;;;;;;;-5.45;43.14;102289.69;5037060;28;20070;-68
2022/03/17 03:21:43;;;;;;;16.15;7.30;;;;;;;-5.48;43.58;102287.88;5054900;28;20036;-68
2022/03/17 03:24:10;;;;;;;18.98;7.55;;;;;;;-5.48;43.55;102298.31;5075138;28;20115;-69
2022/03/17 03:26:36;;;;;;;17.65;7.40;;;;;;;-5.48;43.67;102289.63;5072165;28;20028;-58
2022/03/17 03:29:05;;;;;;;18.10;7.63;;;;;;;-5.50;43.48;102288.69;5071751;28;20043;-68
2022/03/17 03:31:30;;;;;;;14.60;7.38;;;;;;;-5.50;43.49;102300.00;5054175;28;20048;-68
2022/03/17 03:33:56;;;;;;;17.60;8.43;;;;;;;-5.53;43.68;102301.69;5053863;28;20032;-70
2022/03/17 03:39:05;;;;;;;23.65;8.63;;;;;;;-5.51;43.25;102308.69;5072098;28;20032;-70
2022/03/17 03:41:31;;;;;;;15.75;7.85;;;;;;;-5.62;44.14;102292.75;5072012;28;20393;-71
2022/03/17 03:43:58;;;;;;;15.50;8.65;;;;;;;-5.68;43.72;102286.47;5072048;28;20032;-70
2022/03/17 03:46:23;;;;;;;20.42;9.20;;;;;;;-5.52;43.88;102321.72;5071838;28;20390;-71
2022/03/17 03:48:49;;;;;;;18.65;9.23;;;;;;;-5.51;43.34;102316.50;5053694;28;20047;-66
2022/03/17 03:51:14;;;;;;;21.30;8.77;;;;;;;-5.52;44.02;102314.75;5071842;28;20024;-68
2022/03/17 03:56:25;;;;;;;18.05;8.25;;;;;;;-5.27;42.99;102318.00;5064911;28;20032;-73
2022/03/17 03:58:50;;;;;;;15.75;7.35;;;;;;;-5.26;42.98;102326.72;5055683;28;20095;-71
2022/03/17 04:01:18;;;;;;;18.13;7.90;;;;;;;-5.23;42.31;102303.28;5051882;28;20033;-71
2022/03/17 04:03:44;;;;;;;16.83;7.95;;;;;;;-5.15;42.65;102330.47;5051240;28;20032;-71
2022/03/17 04:06:10;;;;;;;16.77;7.95;;;;;;;-5.36;42.59;102300.34;5033673;28;20045;-70
2022/03/17 04:08:36;;;;;;;17.00;7.95;;;;;;;-5.11;42.77;102321.88;5051601;28;20032;-68
2022/03/17 04:11:02;;;;;;;17.20;8.07;;;;;;;-5.08;42.92;102324.53;5061191;28;20082;-70
2022/03/17 04:13:27;;;;;;;17.90;8.02;;;;;;;-5.00;42.62;102339.53;5071016;28;20028;-70
2022/03/17 04:15:53;;;;;;;14.82;7.22;;;;;;;-4.70;41.46;102338.50;5052014;28;20830;-65
2022/03/17 04:18:18;;;;;;;15.30;7.55;;;;;;;-4.77;40.97;102341.00;5051490;28;20020;-68
2022/03/17 04:20:44;;;;;;;18.05;7.78;;;;;;;-4.61;41.03;102341.31;5070986;28;20150;-67
2022/03/17 04:23:09;;;;;;;16.50;7.45;;;;;;;-3.95;39.85;102333.16;5071092;28;20477;-64
2022/03/17 04:25:36;;;;;;;15.20;7.45;;;;;;;-1.83;35.43;102351.31;5070837;28;20043;-64
2022/03/17 04:28:04;;;;;;;18.80;7.57;;;;;;;0.08;32.50;102333.50;5070681;28;20170;-63
2022/03/17 04:30:30;;;;;;;14.80;7.10;;;;;;;1.34;30.54;102331.88;5070391;28;20044;-60
2022/03/17 04:32:56;;;;;;;18.30;7.90;;;;;;;2.12;28.53;102327.19;5052465;28;20041;-62
2022/03/17 04:35:21;;;;;;;21.35;7.72;;;;;;;3.30;27.35;102339.56;5070844;28;20034;-62
2022/03/17 04:37:47;;;;;;;15.50;7.57;;;;;;;4.21;25.39;102328.81;5053505;28;20090;-61
2022/03/17 04:40:13;;;;;;;17.58;8.30;;;;;;;5.06;24.08;102344.34;5071340;28;20454;-61
2022/03/17 04:42:38;;;;;;;15.98;7.68;;;;;;;5.91;23.22;102336.59;5052027;28;20031;-63
2022/03/17 04:45:04;;;;;;;18.33;8.07;;;;;;;6.95;21.82;102348.47;5070261;28;20028;-63
2022/03/17 04:47:30;;;;;;;13.90;7.85;;;;;;;7.94;21.14;102341.41;5053243;28;20028;-62
2022/03/17 04:49:56;;;;;;;19.13;8.90;;;;;;;8.87;19.77;102325.22;5052874;28;20371;-62
2022/03/17 04:55:05;;;;;;;16.20;8.52;;;;;;;10.48;18.23;102361.38;5070452;28;20748;-62
2022/03/17 04:57:31;;;;;;;19.67;8.48;;;;;;;11.03;17.49;102350.22;5053086;28;20492;-62
2022/03/17 04:59:57;;;;;;;16.25;9.07;;;;;;;11.59;16.71;102358.56;5052604;28;20036;-63
2022/03/17 05:02:22;;;;;;;19.38;8.48;;;;;;;12.22;16.18;102324.44;5070292;28;20028;-63
2022/03/17 05:04:48;;;;;;;16.35;8.80;;;;;;;13.22;15.33;102366.13;5052032;28;20116;-63
2022/03/17 05:07:13;;;;;;;21.30;8.65;;;;;;;13.84;14.77;102370.16;5070972;28;20036;-63
2022/03/17 05:09:39;;;;;;;19.90;8.82;;;;;;;14.36;14.16;102358.34;5070616;28;20028;-62
2022/03/17 05:12:05;;;;;;;20.52;9.30;;;;;;;14.96;13.86;102361.28;5070170;28;20426;-62
2022/03/17 05:14:30;;;;;;;17.98;9.50;;;;;;;15.46;13.16;102367.31;5074006;28;20028;-61
2022/03/17 05:16:56;;;;;;;16.23;9.07;;;;;;;15.86;12.24;102350.47;5074009;28;20028;-63
2022/03/17 05:19:21;;;;;;;16.20;8.32;;;;;;;16.15;12.13;102364.84;5056086;28;20101;-63
2022/03/17 05:21:47;;;;;;;18.75;10.30;;;;;;;16.17;11.91;102306.19;5056272;28;20107;-62
2022/03/17 05:24:13;;;;;;;18.80;9.98;;;;;;;16.92;11.50;102368.94;5074529;28;20040;-62
2022/03/17 05:26:38;;;;;;;17.13;9.82;;;;;;;17.48;11.16;102365.19;5074183;28;20143;-62
2022/03/17 05:29:06;;;;;;;15.25;10.15;;;;;;;18.04;10.61;102380.25;5038990;28;20029;-61
2022/03/17 05:31:31;;;;;;;14.90;8.88;;;;;;;18.47;10.24;102379.84;5073947;28;20052;-61
2022/03/17 05:33:57;;;;;;;15.65;9.85;;;;;;;18.76;10.09;102376.81;5074075;28;20047;-61
2022/03/17 05:36:22;;;;;;;20.52;9.93;;;;;;;19.34;9.56;102370.69;5073749;28;20039;-62
2022/03/17 05:38:48;;;;;;;17.45;10.48;;;;;;;19.76;9.30;102342.94;5055754;28;20029;-62
2022/03/17 05:41:13;;;;;;;21.67;11.05;;;;;;;20.76;8.66;102373.91;5074353;28;20522;-62
2022/03/17 05:43:39;;;;;;;21.40;10.45;;;;;;;21.56;8.46;102370.81;5073370;28;20029;-63
2022/03/17 05:46:04;;;;;;;24.70;11.38;;;;;;;22.10;8.06;102367.94;5073932;28;20461;-63
2022/03/17 05:48:30;;;;;;;22.30;12.10;;;;;;;22.44;7.24;102370.34;5073919;28;20032;-61
2022/03/17 05:50:55;;;;;;;20.67;11.38;;;;;;;22.51;7.50;102385.19;5073525;28;20040;-62
2022/03/17 05:53:21;;;;;;;19.95;11.68;;;;;;;22.36;7.29;102381.09;5073143;28;20330;-61
2022/03/17 05:55:46;;;;;;;23.50;11.65;;;;;;;22.49;7.32;102381.75;5074285;28;20041;-62
2022/03/17 05:58:12;;;;;;;20.15;10.80;;;;;;;22.91;6.94;102388.84;5073218;28;20393;-62
2022/03/17 06:00:38;;;;;;;23.23;10.75;;;;;;;23.10;6.66;102384.38;5073201;28;20036;-62
2022/03/17 06:03:06;;;;;;;17.95;11.23;;;;;;;23.21;6.52;102392.41;5068201;28;20424;-63
2022/03/17 06:05:32;;;;;;;21.00;10.05;;;;;;;23.42;6.70;102382.38;5044863;28;20089;-64
2022/03/17 06:08:01;;;;;;;19.60;10.55;;;;;;;23.87;6.38;102381.69;5054896;28;20466;-62
2022/03/17 06:10:32;;;;;;;16.98;10.57;;;;;;;24.40;6.02;102395.72;5054990;28;20466;-64
2022/03/17 06:13:00;;;;;;;19.15;10.57;;;;;;;24.52;5.83;102377.22;5056427;28;20038;-61
2022/03/17 06:15:25;;;;;;;17.70;10.35;;;;;;;24.66;6.06;102364.88;5072976;28;20039;-61
2022/03/17 06:17:58;;;;;;;19.90;10.70;;;;;;;25.41;5.67;102403.91;5055179;28;20029;-62
2022/03/17 06:20:27;;;;;;;18.60;10.95;;;;;;;25.61;5.44;102386.28;5052957;28;20072;-61
2022/03/17 06:22:55;;;;;;;16.98;10.77;;;;;;;26.11;4.93;102385.66;5053342;28;20065;-61
2022/03/17 06:25:23;;;;;;;19.17;11.13;;;;;;;26.80;5.19;102397.44;5044432;28;20036;-65
2022/03/17 06:27:49;;;;;;;18.33;9.57;;;;;;;27.08;4.19;102408.16;5034917;28;20481;-64
2022/03/17 06:30:18;;;;;;;24.55;9.82;;;;;;;26.47;4.24;102400.09;5070655;28;20150;-61
2022/03/17 06:32:44;;;;;;;22.75;9.40;;;;;;;25.17;5.23;102369.81;5073161;28;20045;-63
2022/03/17 06:35:15;;;;;;;13.82;9.00;;;;;;;25.21;5.14;102396.75;5073168;28;20040;-61
2022/03/17 06:37:41;;;;;;;14.80;8.50;;;;;;;25.36;4.79;102391.56;5072228;28;20052;-62
2022/03/17 06:40:07;;;;;;;17.42;7.80;;;;;;;26.27;4.50;102401.38;5071868;28;20025;-62
2022/03/17 06:42:33;;;;;;;15.20;7.85;;;;;;;27.14;4.44;102402.97;5072361;28;20121;-61
2022/03/17 06:45:00;;;;;;;17.30;8.10;;;;;;;27.68;4.03;102398.84;5072736;28;20094;-61
2022/03/17 06:47:26;;;;;;;13.25;7.32;;;;;;;28.41;3.76;102398.78;5072122;28;20478;-63
2022/03/17 06:49:51;;;;;;;13.38;6.78;;;;;;;28.58;3.49;102396.78;5072439;28;20037;-64
2022/03/17 06:52:17;;;;;;;14.00;7.20;;;;;;;28.18;3.35;102380.28;5072892;28;20032;-62
2022/03/17 06:54:43;;;;;;;19.70;7.05;;;;;;;28.10;3.68;102394.09;5072138;28;20037;-62
2022/03/17 06:57:08;;;;;;;13.68;7.03;;;;;;;28.46;3.22;102394.47;5053953;28;20061;-62
2022/03/17 06:59:34;;;;;;;15.40;6.75;;;;;;;29.03;3.03;102384.09;5071846;28;20377;-61
2022/03/17 07:02:00;;;;;;;9.68;6.32;;;;;;;29.55;2.82;102389.00;5054169;28;20029;-62
2022/03/17 07:04:25;;;;;;;11.52;5.63;;;;;;;29.48;2.26;102394.41;5071691;28;20033;-61
2022/03/17 07:06:51;;;;;;;8.85;5.85;;;;;;;27.73;3.02;102364.25;5054243;28;20036;-63
2022/03/17 07:09:16;;;;;;;9.93;6.53;;;;;;;27.85;3.35;102392.25;5071193;28;20470;-63
2022/03/17 07:11:44;;;;;;;17.88;6.13;;;;;;;26.07;3.37;102396.13;5054074;28;20024;-63
2022/03/17 07:14:10;;;;;;;11.63;5.60;;;;;;;24.18;4.45;102366.88;5070625;28;20136;-61
2022/03/17 07:16:36;;;;;;;12.88;5.88;;;;;;;21.46;4.91;102394.41;5069222;28;20501;-58
2022/03/17 07:19:01;;;;;;;13.77;5.82;;;;;;;20.57;6.17;102409.09;5071577;28;20076;-62
2022/03/17 07:21:27;;;;;;;12.48;5.95;;;;;;;22.16;5.27;102396.53;5054204;28;20458;-61
2022/03/17 07:23:52;;;;;;;12.98;5.80;;;;;;;24.05;4.89;102402.78;5071986;28;20063;-62
2022/03/17 07:26:18;;;;;;;13.90;5.43;;;;;;;24.64;4.04;102394.28;5052834;28;20028;-63
2022/03/17 07:28:44;;;;;;;13.73;5.57;;;;;;;24.29;4.44;102399.53;5071248;28;20036;-62
2022/03/17 07:31:09;;;;;;;11.75;6.20;;;;;;;23.82;4.22;102374.94;5071342;28;20074;-62
2022/03/17 07:33:35;;;;;;;15.35;5.95;;;;;;;22.19;4.76;102405.31;5071042;28;20035;-61
2022/03/17 07:36:02;;;;;;;10.00;5.50;;;;;;;22.88;5.10;102394.59;5053299;28;20480;-62
2022/03/17 07:38:28;;;;;;;11.55;5.70;;;;;;;23.24;4.66;102399.47;5071095;28;20086;-61
2022/03/17 07:40:53;;;;;;;14.07;5.38;;;;;;;22.85;4.77;102402.19;5070797;28;20020;-61
2022/03/17 07:43:19;;;;;;;11.82;5.65;;;;;;;23.80;4.66;102394.22;5052922;28;20055;-63
2022/03/17 07:45:44;;;;;;;9.30;5.05;;;;;;;24.54;4.46;102402.56;5070965;28;20032;-55
2022/03/17 07:48:10;;;;;;;11.23;6.10;;;;;;;25.30;4.10;102408.63;5071129;28;20055;-61
2022/03/17 07:50:36;;;;;;;12.07;5.10;;;;;;;25.79;3.90;102374.34;5071040;28;20484;-60
2022/03/17 07:53:01;;;;;;;12.43;5.05;;;;;;;24.90;3.99;102415.47;5071443;28;20029;-61
2022/03/17 07:55:27;;;;;;;15.23;5.50;;;;;;;23.87;4.42;102405.44;5070895;28;20039;-63
2022/03/17 07:57:53;;;;;;;13.98;5.30;;;;;;;23.39;4.48;102421.78;5071732;28;20036;-61
2022/03/17 08:00:18;;;;;;;12.68;6.15;;;;;;;22.35;4.87;102403.91;5070804;28;20032;-60
2022/03/17 08:02:44;;;;;;;11.40;4.88;;;;;;;20.78;5.59;102404.59;5053168;28;20308;-62
2022/03/17 08:05:10;;;;;;;13.13;5.55;;;;;;;18.30;6.69;102419.06;5071171;28;20025;-62
2022/03/17 08:07:37;;;;;;;12.43;5.30;;;;;;;15.75;7.61;102418.69;5053130;28;20123;-59
2022/03/17 08:10:02;;;;;;;8.18;5.00;;;;;;;13.58;9.31;102416.34;5071076;28;20128;-64
2022/03/17 08:12:31;;;;;;;10.15;5.57;;;;;;;11.83;9.75;102422.84;5052543;28;20021;-63
2022/03/17 08:14:58;;;;;;;11.77;5.30;;;;;;;9.76;11.68;102435.41;5052777;28;20033;-57
2022/03/17 08:17:24;;;;;;;12.38;5.22;;;;;;;8.40;12.69;102420.09;5071500;28;20027;-57
2022/03/17 08:19:50;;;;;;;17.55;5.38;;;;;;;7.45;13.25;102432.50;5071383;28;20029;-57
2022/03/17 08:22:16;;;;;;;9.65;3.42;;;;;;;6.97;13.03;102436.34;5070755;28;20036;-59
2022/03/17 08:24:41;;;;;;;10.95;3.63;;;;;;;6.25;14.03;102444.97;5070655;28;20044;-62
2022/03/17 08:27:07;;;;;;;17.35;3.67;;;;;;;5.86;14.25;102427.97;5070670;28;20025;-63
2022/03/17 08:29:33;;;;;;;8.38;3.50;;;;;;;5.38;15.50;102444.75;5069708;28;20095;-63
2022/03/17 08:31:59;;;;;;;8.25;3.30;;;;;;;5.08;14.97;102430.19;5070634;28;20070;-62
2022/03/17 08:34:26;;;;;;;11.93;3.88;;;;;;;4.88;15.45;102444.66;5070664;28;20502;-61
2022/03/17 08:36:54;;;;;;;7.95;3.58;;;;;;;4.76;15.29;102466.03;5071039;28;20591;-58
2022/03/17 08:39:20;;;;;;;8.38;2.75;;;;;;;4.00;15.46;102406.88;5071036;28;20050;-55
2022/03/17 08:41:46;;;;;;;8.85;2.95;;;;;;;3.84;16.12;102427.38;5059536;28;20029;-62
2022/03/17 08:44:11;;;;;;;6.82;2.67;;;;;;;3.88;15.55;102444.97;5070164;28;20043;-61
2022/03/17 08:49:24;;;;;;;7.88;2.97;;;;;;;4.19;15.55;102455.25;5070693;28;20036;-63
2022/03/17 08:51:59;;;;;;;8.68;2.58;;;;;;;3.98;15.39;102446.66;5051941;28;20116;-62
2022/03/17 08:54:27;;;;;;;9.40;2.73;;;;;;;3.18;15.90;102412.94;5070108;28;20028;-62
2022/03/17 08:57:00;;;;;;;11.98;3.10;;;;;;;3.32;16.22;102461.38;5052349;28;20032;-64
2022/03/17 08:59:32;;;;;;;10.88;2.50;;;;;;;3.36;16.42;102459.56;5070985;28;20041;-61
2022/03/17 09:01:59;;;;;;;8.18;2.15;;;;;;;3.11;15.96;102462.41;5070662;28;20043;-62
2022/03/17 09:04:27;;;;;;;6.03;2.50;;;;;;;2.92;16.75;102467.84;5052356;28;20108;-61
2022/03/17 09:06:58;;;;;;;13.55;2.80;;;;;;;2.91;16.65;102466.09;5070170;28;20481;-59
2022/03/17 09:09:28;;;;;;;9.02;2.88;;;;;;;3.34;16.33;102464.91;5070589;28;20081;-62
2022/03/17 09:11:54;;;;;;;3.03;1.90;;;;;;;3.36;16.46;102454.28;5052429;28;20027;-56
2022/03/17 09:14:21;;;;;;;6.13;2.53;;;;;;;3.17;16.37;102462.38;5070021;28;20059;-62
2022/03/17 09:16:46;;;;;;;3.80;2.65;;;;;;;2.94;16.75;102466.06;5036042;28;20029;-61
2022/03/17 09:19:12;;;;;;;13.65;2.85;;;;;;;2.92;16.84;102467.84;5070078;28;20062;-62
2022/03/17 09:21:37;;;;;;;6.00;2.33;;;;;;;3.04;16.78;102471.28;5068819;28;20074;-60
2022/03/17 09:24:03;;;;;;;7.38;2.30;;;;;;;3.09;16.46;102451.84;5035248;28;20980;-62
2022/03/17 09:26:33;;;;;;;6.38;2.60;;;;;;;2.85;17.13;102471.38;5069648;28;20119;-63
2022/03/17 09:28:59;;;;;;;7.93;3.05;;;;;;;2.62;17.51;102458.28;5069531;28;20040;-63
2022/03/17 09:31:25;;;;;;;9.90;3.10;;;;;;;2.34;17.67;102466.34;5052000;28;20056;-63
2022/03/17 09:33:51;;;;;;;8.10;2.65;;;;;;;2.28;17.53;102464.59;5051075;28;20370;-59
2022/03/17 09:36:17;;;;;;;9.18;2.97;;;;;;;2.42;17.51;102457.50;5069628;28;20045;-61
2022/03/17 09:38:43;;;;;;;4.97;2.78;;;;;;;2.57;17.46;102461.84;5069813;28;20086;-59
2022/03/17 09:41:25;;;;;;;8.65;4.18;;;;;;;2.75;17.43;102438.81;5069198;28;20029;-59
2022/03/17 09:43:52;;;;;;;8.63;3.15;;;;;;;2.90;17.61;102464.31;5069650;28;20046;-63
2022/03/17 09:46:21;;;;;;;8.35;3.45;;;;;;;2.81;18.35;102451.13;5070115;28;20091;-58
2022/03/17 09:48:53;;;;;;;7.25;3.05;;;;;;;2.82;18.93;102448.50;5069425;28;20040;-59
2022/03/17 09:51:26;;;;;;;8.88;3.67;;;;;;;2.98;18.33;102454.56;5069203;28;20024;-61
2022/03/17 09:53:54;;;;;;;8.90;2.72;;;;;;;3.19;17.75;102460.59;5069846;28;20039;-60
2022/03/17 09:56:24;;;;;;;8.70;3.08;;;;;;;3.27;17.53;102427.00;5068980;28;20082;-63
2022/03/17 09:58:54;;;;;;;7.20;2.88;;;;;;;3.29;18.59;102456.97;5019160;28;20063;-62
2022/03/17 10:01:22;;;;;;;8.93;2.42;;;;;;;3.26;17.49;102440.25;5073208;28;20028;-62
2022/03/17 10:03:48;;;;;;;5.75;2.65;;;;;;;3.23;16.94;102443.78;5074054;28;20119;-57
2022/03/17 10:06:17;;;;;;;6.28;2.72;;;;;;;2.92;17.41;102414.91;5055517;28;20028;-60
2022/03/17 10:08:45;;;;;;;5.45;2.42;;;;;;;3.14;17.48;102442.09;5073165;28;20038;-60
2022/03/17 10:11:30;;;;;;;6.35;2.40;;;;;;;3.53;17.53;102433.81;5038821;28;20036;-63
2022/03/17 10:13:57;;;;;;;4.35;2.50;;;;;;;3.69;17.53;102423.09;5053391;28;20029;-63
2022/03/17 10:16:24;;;;;;;4.68;2.17;;;;;;;3.99;17.79;102429.84;5053354;28;20029;-62
2022/03/17 10:19:12;;;;;;;5.20;2.47;;;;;;;4.12;16.47;102425.28;5061106;28;20029;-59
2022/03/17 10:21:38;;;;;;;7.40;2.53;;;;;;;3.78;16.88;102380.59;5072790;28;20036;-61
2022/03/17 10:24:08;;;;;;;5.15;2.28;;;;;;;3.60;17.15;102397.56;5073423;28;20105;-63
2022/03/17 10:26:46;;;;;;;5.90;2.13;;;;;;;3.69;17.39;102420.44;5054278;28;20036;-60
2022/03/17 10:29:20;;;;;;;8.35;2.67;;;;;;;3.19;18.04;102404.09;5054526;28;20032;-61
2022/03/17 10:31:52;;;;;;;8.70;2.58;;;;;;;3.23;17.50;102417.31;5072864;28;20102;-58
2022/03/17 10:34:23;;;;;;;4.07;2.25;;;;;;;3.13;17.13;102381.19;5055495;28;20119;-58
2022/03/17 10:36:49;;;;;;;9.57;2.80;;;;;;;3.23;17.50;102425.25;5054652;28;20070;-57
2022/03/17 10:39:15;;;;;;;4.85;2.40;;;;;;;2.88;18.66;102381.41;5054397;28;20405;-58
2022/03/17 10:41:43;;;;;;;6.97;2.25;;;;;;;3.10;18.14;102424.47;5072267;28;20028;-62
2022/03/17 10:44:15;;;;;;;8.70;2.17;;;;;;;3.19;17.63;102433.22;5073066;28;20033;-62
2022/03/17 10:47:02;;;;;;;5.47;2.75;;;;;;;3.30;17.98;102420.81;5054732;28;20033;-63
2022/03/17 10:49:28;;;;;;;4.57;2.45;;;;;;;3.22;18.46;102418.22;5072289;28;20147;-62
2022/03/17 10:51:55;;;;;;;8.30;2.50;;;;;;;3.26;18.29;102417.28;5072919;28;20055;-63
2022/03/17 10:54:21;;;;;;;7.85;3.50;;;;;;;3.19;18.21;102418.25;5073078;28;20098;-61
2022/03/17 10:56:57;;;;;;;4.38;2.33;;;;;;;3.26;18.78;102409.34;5071850;28;20067;-60
2022/03/17 10:59:34;;;;;;;5.28;2.20;;;;;;;3.29;18.78;102411.97;5072041;28;20451;-59
2022/03/17 11:02:03;;;;;;;9.32;1.92;;;;;;;3.30;18.39;102405.78;5072261;28;20482;-61
2022/03/17 11:04:29;;;;;;;6.03;1.95;;;;;;;3.26;18.21;102404.06;5072720;28;20047;-60
2022/03/17 11:06:55;;;;;;;5.75;2.08;;;;;;;3.28;18.56;102399.63;5054955;28;20028;-60
2022/03/17 11:09:23;;;;;;;5.68;2.03;;;;;;;3.21;18.89;102424.41;5071942;28;20035;-58
2022/03/17 11:11:49;;;;;;;4.50;2.20;;;;;;;3.12;18.65;102406.81;5053609;28;20500;-61
2022/03/17 11:14:15;;;;;;;4.18;2.13;;;;;;;3.07;18.59;102413.91;5071465;28;20029;-63
2022/03/17 11:16:46;;;;;;;3.88;1.88;;;;;;;3.19;18.84;102398.81;5070490;28;20428;-64
2022/03/17 11:19:16;;;;;;;5.88;2.25;;;;;;;3.23;18.39;102395.25;5072171;28;20036;-59
2022/03/17 11:21:48;;;;;;;5.13;2.00;;;;;;;3.30;18.75;102394.31;5070416;28;20039;-63
2022/03/17 11:24:21;;;;;;;5.75;1.98;;;;;;;3.36;18.77;102396.00;5072039;28;20120;-59
2022/03/17 11:26:51;;;;;;;4.45;2.10;;;;;;;3.25;19.06;102390.81;5072043;28;20030;-63
2022/03/17 11:29:18;;;;;;;5.82;2.00;;;;;;;3.29;18.95;102401.38;5054946;28;20037;-63
2022/03/17 11:32:00;;;;;;;7.13;1.98;;;;;;;3.38;18.79;102396.91;5053209;28;20064;-61
2022/03/17 11:34:38;;;;;;;5.75;2.15;;;;;;;3.38;18.47;102404.84;5071756;28;20107;-63
2022/03/17 11:37:20;;;;;;;9.43;2.50;;;;;;;3.34;18.87;102403.09;5063621;28;20484;-62
2022/03/17 11:40:06;;;;;;;4.15;2.00;;;;;;;3.55;17.89;102399.38;5071563;28;20040;-62